Terminal Aerodrome Forecast
Issued by NWS

Home | Current Version | Previous Version | Text Only | Print | Product List | Glossary On
Versions: 1 2 3 4 5 6 7 8 9 10 11 12 13 14 15
982
FTUS42 KTAE 311120
TAFECP
TAF
KECP 311120Z 3112/0112 00000KT 1/2SM FG BKN002
     FM311400 25005KT P6SM SCT250
     FM311700 27006KT P6SM VCTS SCT040CB SCT250
     FM010000 24005KT P6SM SCT250=

USA.gov is the U.S. government's official web portal to all federal, state and local government web resources and services.